Nada, Texas
Current Conditions -  °F | °C
As of 3:35 PM on Sunday 23 Nov 2014 (Local Time) from KELA Reporting Station
Clear Clear  
Wind Chill: 80°   Ceiling: Unl
Heat Index: 80°   Visibility: 10mi
Dew Point: 49°   Wind: 10mph
Humidity: 33%   Direction: 250°WSW
Pressure: 29.55"   Gusts: 17mph
Location:  29.41°N, 96.39°W
Report Text: KELA 232135Z AUTO 25009G15KT 10SM CLR 27/09 A2955 RMK AO2 T02670093
Loading
Personal Weather Stations






























Interactive Weather Map New forecast layout! Learn more

10-Day Weather Forecast

Advertisements
Track Severe Weather on mobile